createdAt,value
2018-12-29T00:01:41.270Z,27.63
2018-12-29T00:04:12.802Z,31.60
2018-12-29T00:06:43.212Z,30.30
2018-12-29T00:09:13.561Z,34.57
2018-12-29T00:11:43.919Z,22.07
2018-12-29T00:14:14.276Z,35.93
2018-12-29T00:16:44.697Z,33.70
2018-12-29T00:19:15.222Z,32.10
2018-12-29T00:21:45.627Z,38.83
2018-12-29T00:24:16.018Z,32.33
2018-12-29T00:26:46.439Z,32.07
2018-12-29T00:29:16.773Z,37.53
2018-12-29T00:31:47.202Z,32.27
2018-12-29T00:34:17.538Z,31.00
2018-12-29T00:36:50.008Z,35.30
2018-12-29T00:39:20.374Z,37.23
2018-12-29T00:41:50.700Z,39.10
2018-12-29T00:44:21.069Z,35.67
2018-12-29T00:46:51.564Z,42.83
2018-12-29T00:49:21.912Z,38.87
2018-12-29T00:51:52.242Z,36.10
2018-12-29T00:54:22.604Z,38.30
2018-12-29T00:56:53.024Z,33.93
2018-12-29T00:59:23.368Z,36.30
2018-12-29T01:01:53.740Z,30.80
2018-12-29T01:04:24.162Z,38.50
2018-12-29T01:06:54.606Z,40.93
2018-12-29T01:09:24.957Z,39.20
2018-12-29T01:11:57.681Z,34.50
2018-12-29T01:14:28.024Z,41.50
2018-12-29T01:16:58.355Z,42.27
2018-12-29T01:19:28.750Z,34.63
2018-12-29T01:22:00.771Z,43.23
2018-12-29T01:24:31.272Z,41.70
2018-12-29T01:27:01.613Z,37.77
2018-12-29T01:29:39.388Z,39.40
2018-12-29T01:32:09.727Z,43.63
2018-12-29T01:34:40.120Z,35.37
2018-12-29T01:37:10.608Z,44.53
2018-12-29T01:39:41.024Z,38.37
2018-12-29T01:42:11.551Z,45.33
2018-12-29T01:44:41.936Z,37.83
2018-12-29T01:47:12.379Z,44.90
2018-12-29T01:49:42.773Z,48.37
2018-12-29T01:52:13.127Z,48.20
2018-12-29T01:54:43.675Z,40.50
2018-12-29T01:57:14.002Z,43.93
2018-12-29T01:59:44.437Z,48.63
2018-12-29T02:02:14.804Z,53.10
2018-12-29T02:04:46.505Z,36.33
2018-12-29T02:07:16.908Z,43.97
2018-12-29T02:09:47.244Z,56.93
2018-12-29T02:12:17.559Z,47.47
2018-12-29T02:14:47.858Z,48.00
2018-12-29T02:17:18.232Z,55.70
2018-12-29T02:19:48.734Z,50.20
2018-12-29T02:22:21.409Z,52.20
2018-12-29T02:24:51.934Z,44.30
2018-12-29T02:27:22.371Z,50.30
2018-12-29T02:29:52.756Z,64.43
2018-12-29T02:32:23.144Z,55.10
2018-12-29T02:34:53.486Z,48.67
2018-12-29T02:37:23.898Z,49.50
2018-12-29T02:40:03.355Z,46.77
2018-12-29T02:42:33.918Z,61.60
2018-12-29T02:45:04.425Z,55.03
2018-12-29T02:47:35.137Z,56.83
2018-12-29T02:50:05.733Z,51.83
2018-12-29T02:52:36.103Z,47.23
2018-12-29T02:55:06.650Z,47.17
2018-12-29T02:57:40.458Z,64.50
2018-12-29T03:00:10.839Z,51.27
2018-12-29T03:02:41.160Z,58.97
2018-12-29T03:05:11.504Z,43.00
2018-12-29T03:07:41.870Z,49.80
2018-12-29T03:10:12.232Z,59.07
2018-12-29T03:12:42.703Z,45.10
2018-12-29T03:15:13.098Z,55.73
2018-12-29T03:17:43.434Z,53.73
2018-12-29T03:20:13.779Z,57.07
2018-12-29T03:22:44.164Z,55.87
2018-12-29T03:25:14.586Z,55.73
2018-12-29T03:27:45.006Z,58.07
2018-12-29T03:30:18.486Z,55.67
2018-12-29T03:32:49.015Z,59.60
2018-12-29T03:35:19.363Z,54.90
2018-12-29T03:37:49.932Z,61.03
2018-12-29T03:40:20.261Z,67.40
2018-12-29T03:42:50.631Z,54.70
2018-12-29T03:45:21.045Z,61.70
2018-12-29T03:47:51.409Z,64.20
2018-12-29T03:50:21.928Z,63.23
2018-12-29T03:52:52.711Z,63.50
2018-12-29T03:55:23.071Z,63.50
2018-12-29T03:57:53.740Z,69.60
2018-12-29T04:00:24.111Z,57.37
2018-12-29T04:02:54.506Z,63.33
2018-12-29T04:05:24.811Z,67.87
2018-12-29T04:07:55.239Z,57.27
2018-12-29T04:10:25.633Z,70.63
2018-12-29T04:12:58.976Z,62.93
2018-12-29T04:15:29.474Z,63.33
2018-12-29T04:17:59.970Z,57.67
2018-12-29T04:20:30.393Z,58.77
2018-12-29T04:23:00.788Z,60.87
2018-12-29T04:25:31.045Z,60.97
2018-12-29T04:28:01.346Z,62.20
2018-12-29T04:30:31.700Z,72.70
2018-12-29T04:33:02.060Z,64.90
2018-12-29T04:35:32.484Z,67.53
2018-12-29T04:38:02.774Z,58.50
2018-12-29T04:40:33.211Z,69.00
2018-12-29T04:43:03.691Z,69.70
2018-12-29T04:45:34.069Z,58.53
2018-12-29T04:48:04.369Z,62.97
2018-12-29T04:50:34.806Z,56.13
2018-12-29T04:53:05.157Z,61.33
2018-12-29T04:55:38.295Z,63.17
2018-12-29T04:58:08.639Z,74.03
2018-12-29T05:00:38.887Z,58.63
2018-12-29T05:03:09.211Z,69.43
2018-12-29T05:05:39.539Z,53.43
2018-12-29T05:08:09.851Z,66.03
2018-12-29T05:10:40.116Z,71.10
2018-12-29T05:13:10.427Z,58.40
2018-12-29T05:15:40.749Z,59.67
2018-12-29T05:18:11.183Z,68.10
2018-12-29T05:20:41.501Z,63.07
2018-12-29T05:23:11.872Z,63.60
2018-12-29T05:25:42.253Z,68.03
2018-12-29T05:28:17.164Z,59.03
2018-12-29T05:30:47.455Z,54.27
2018-12-29T05:33:17.736Z,57.73
2018-12-29T05:35:47.993Z,67.10
2018-12-29T05:38:18.373Z,64.47
2018-12-29T05:40:48.668Z,57.17
2018-12-29T05:43:18.952Z,48.07
2018-12-29T05:45:49.233Z,57.93
2018-12-29T05:48:19.587Z,64.47
2018-12-29T05:50:49.919Z,57.63
2018-12-29T05:53:20.317Z,52.93
2018-12-29T05:55:50.639Z,52.10
2018-12-29T05:58:21.177Z,45.67
2018-12-29T06:00:51.421Z,45.70
2018-12-29T06:03:21.728Z,43.17
2018-12-29T06:05:52.026Z,41.77
2018-12-29T06:08:22.383Z,35.07
2018-12-29T06:10:52.668Z,43.40
2018-12-29T06:13:22.975Z,37.90
2018-12-29T06:15:53.281Z,35.83
2018-12-29T06:18:23.641Z,40.43
2018-12-29T06:20:54.042Z,37.77
2018-12-29T06:23:24.324Z,46.03
2018-12-29T06:25:54.589Z,35.27
2018-12-29T06:28:25.003Z,40.00
2018-12-29T06:30:55.328Z,40.43
2018-12-29T06:33:27.126Z,36.50
2018-12-29T06:35:57.387Z,46.80
2018-12-29T06:38:27.719Z,39.33
2018-12-29T06:40:58.012Z,37.40
2018-12-29T06:43:28.388Z,36.97
2018-12-29T06:45:58.867Z,37.77
2018-12-29T06:48:29.312Z,39.27
2018-12-29T06:50:59.705Z,35.10
2018-12-29T06:53:30.029Z,35.43
2018-12-29T06:56:00.327Z,35.47
2018-12-29T06:58:30.539Z,35.40
2018-12-29T07:01:00.869Z,35.37
2018-12-29T07:03:31.093Z,32.83
2018-12-29T07:06:01.528Z,32.23
2018-12-29T07:08:31.888Z,35.80
2018-12-29T07:11:02.231Z,34.53
2018-12-29T07:13:32.517Z,30.03
2018-12-29T07:16:02.887Z,32.80
2018-12-29T07:18:33.250Z,29.77
2018-12-29T07:21:03.491Z,30.77
2018-12-29T07:23:33.746Z,29.97
2018-12-29T07:26:04.091Z,35.83
2018-12-29T07:28:34.336Z,31.53
2018-12-29T07:31:04.645Z,26.40
2018-12-29T07:33:35.011Z,30.37
2018-12-29T07:36:05.311Z,28.43
2018-12-29T07:38:35.731Z,35.10
2018-12-29T07:41:06.036Z,28.33
2018-12-29T07:43:36.355Z,27.40
2018-12-29T07:46:07.107Z,34.50
2018-12-29T07:48:37.497Z,31.93
2018-12-29T07:51:08.250Z,28.23
2018-12-29T07:53:38.662Z,31.00
2018-12-29T07:56:09.089Z,27.97
2018-12-29T07:58:40.920Z,30.97
2018-12-29T08:01:11.677Z,30.73
2018-12-29T08:03:41.977Z,38.77
2018-12-29T08:06:12.340Z,39.93
2018-12-29T08:08:42.821Z,42.10
2018-12-29T08:11:13.225Z,37.20
2018-12-29T08:13:43.651Z,35.90
2018-12-29T08:16:14.173Z,33.90
2018-12-29T08:18:46.986Z,41.90
2018-12-29T08:21:18.746Z,38.77
2018-12-29T08:23:49.282Z,36.63
2018-12-29T08:26:19.726Z,37.97
2018-12-29T08:28:50.178Z,34.17
2018-12-29T08:31:21.816Z,36.67
2018-12-29T08:33:52.277Z,35.77
2018-12-29T08:36:22.717Z,35.10
2018-12-29T08:38:53.581Z,36.70
2018-12-29T08:41:24.048Z,39.87
2018-12-29T08:43:54.422Z,38.87
2018-12-29T08:46:24.815Z,38.33
2018-12-29T08:48:55.281Z,45.87
2018-12-29T08:51:25.858Z,33.87
2018-12-29T08:53:56.272Z,43.63
2018-12-29T08:56:26.690Z,34.97
2018-12-29T08:58:57.120Z,42.70
2018-12-29T09:01:27.569Z,36.30
2018-12-29T09:03:57.985Z,38.07
2018-12-29T09:06:28.619Z,40.83
2018-12-29T09:08:59.043Z,32.23
2018-12-29T09:11:29.574Z,37.73
2018-12-29T09:14:00.143Z,29.33
2018-12-29T09:16:30.532Z,39.43
2018-12-29T09:19:01.115Z,42.83
2018-12-29T09:21:31.745Z,42.10
2018-12-29T09:24:02.251Z,33.90
2018-12-29T09:26:32.884Z,37.20
2018-12-29T09:29:03.318Z,39.13
2018-12-29T09:31:33.749Z,27.90
2018-12-29T09:34:04.208Z,31.57
2018-12-29T09:36:34.560Z,32.57
2018-12-29T09:39:06.650Z,25.17
2018-12-29T09:41:37.048Z,28.67
2018-12-29T09:44:07.452Z,33.20
2018-12-29T09:46:37.996Z,36.67
2018-12-29T09:49:08.568Z,38.07
2018-12-29T09:51:39.110Z,32.37
2018-12-29T09:54:09.634Z,32.37
2018-12-29T09:56:40.030Z,37.60
2018-12-29T09:59:10.486Z,27.83
2018-12-29T10:01:40.950Z,37.30
2018-12-29T10:04:11.452Z,26.10
2018-12-29T10:06:41.926Z,34.07
2018-12-29T10:09:12.405Z,30.27
2018-12-29T10:11:42.812Z,30.03
2018-12-29T10:14:13.240Z,36.23
2018-12-29T10:16:43.603Z,37.63
2018-12-29T10:19:14.402Z,34.87
2018-12-29T10:21:44.980Z,30.23
2018-12-29T10:24:15.529Z,30.63
2018-12-29T10:26:48.927Z,29.03
2018-12-29T10:29:19.647Z,30.97
2018-12-29T10:31:50.135Z,25.63
2018-12-29T10:34:20.632Z,27.57
2018-12-29T10:36:51.022Z,23.47
2018-12-29T10:39:21.400Z,29.73
2018-12-29T10:41:52.026Z,28.77
2018-12-29T10:44:22.589Z,35.17
2018-12-29T10:46:53.005Z,29.13
2018-12-29T10:49:23.449Z,24.83
2018-12-29T10:51:53.897Z,26.93
2018-12-29T10:54:24.470Z,24.10
2018-12-29T10:56:55.060Z,28.63
2018-12-29T10:59:25.464Z,30.97
2018-12-29T11:01:56.041Z,32.07
2018-12-29T11:04:26.542Z,35.40
2018-12-29T11:06:56.978Z,32.93
2018-12-29T11:09:27.381Z,36.33
2018-12-29T11:11:58.166Z,41.23
2018-12-29T11:14:28.797Z,25.97
2018-12-29T11:16:59.409Z,31.67
2018-12-29T11:19:30.112Z,29.50
2018-12-29T11:22:11.189Z,30.43
2018-12-29T11:24:41.918Z,22.30
2018-12-29T11:27:15.198Z,26.10
2018-12-29T11:29:45.971Z,28.37
2018-12-29T11:32:16.378Z,24.20
2018-12-29T11:34:46.878Z,31.50
2018-12-29T11:37:17.536Z,30.70
2018-12-29T11:39:48.038Z,22.23
2018-12-29T11:42:19.201Z,32.57
2018-12-29T11:44:49.642Z,27.37
2018-12-29T11:47:22.804Z,26.33
2018-12-29T11:49:53.272Z,29.07
2018-12-29T11:52:25.527Z,38.13
2018-12-29T11:54:56.065Z,19.33
2018-12-29T11:57:29.282Z,27.00
2018-12-29T11:59:59.856Z,31.97
2018-12-29T12:02:33.852Z,33.07
2018-12-29T12:05:04.724Z,30.30
2018-12-29T12:07:35.133Z,31.57
2018-12-29T12:10:05.586Z,31.63
2018-12-29T12:12:36.421Z,33.47
2018-12-29T12:15:07.236Z,32.80
2018-12-29T12:17:37.971Z,38.60
2018-12-29T12:20:08.400Z,44.40
2018-12-29T12:22:38.785Z,35.17
2018-12-29T12:25:09.336Z,37.70
2018-12-29T12:27:40.850Z,46.60
2018-12-29T12:30:11.403Z,44.83
2018-12-29T12:32:41.969Z,30.47
2018-12-29T12:35:12.465Z,43.37
2018-12-29T12:37:42.881Z,39.83
2018-12-29T12:40:15.285Z,45.70
2018-12-29T12:42:45.822Z,40.27
2018-12-29T12:45:16.212Z,49.77
2018-12-29T12:47:46.745Z,41.20
2018-12-29T12:50:18.703Z,31.00
2018-12-29T12:52:49.102Z,46.47
2018-12-29T12:55:20.578Z,34.07
2018-12-29T12:57:51.938Z,59.67
2018-12-29T13:00:22.692Z,40.67
2018-12-29T13:02:56.147Z,36.73
2018-12-29T13:05:26.417Z,33.70
2018-12-29T13:07:56.837Z,48.33
2018-12-29T13:10:27.445Z,47.37
2018-12-29T13:12:57.859Z,49.73
2018-12-29T13:15:28.306Z,46.60
2018-12-29T13:17:58.873Z,44.93
2018-12-29T13:20:35.924Z,45.63
2018-12-29T13:23:06.533Z,40.20
2018-12-29T13:25:36.880Z,39.30
2018-12-29T13:28:07.224Z,33.83
2018-12-29T13:30:57.284Z,34.70
2018-12-29T13:33:27.769Z,50.23
2018-12-29T13:35:58.115Z,41.13
2018-12-29T13:38:29.039Z,32.63
2018-12-29T13:40:59.466Z,43.50
2018-12-29T13:43:29.928Z,47.63
2018-12-29T13:46:00.435Z,47.93
2018-12-29T13:48:30.963Z,47.37
2018-12-29T13:51:01.261Z,47.47
2018-12-29T13:53:31.616Z,44.47
2018-12-29T13:56:02.284Z,43.83
2018-12-29T13:58:32.725Z,39.67
2018-12-29T14:01:03.146Z,43.20
2018-12-29T14:03:33.773Z,37.03
2018-12-29T14:06:04.432Z,33.77
2018-12-29T14:08:36.329Z,39.93
2018-12-29T14:11:08.468Z,35.87
2018-12-29T14:13:38.891Z,30.17
2018-12-29T14:16:09.251Z,40.30
2018-12-29T14:18:39.570Z,31.50
2018-12-29T14:21:10.397Z,40.63
2018-12-29T14:23:40.822Z,36.60
2018-12-29T14:26:15.257Z,42.27
2018-12-29T14:28:46.030Z,41.20
2018-12-29T14:31:16.806Z,34.70
2018-12-29T14:33:47.398Z,29.83
2018-12-29T14:36:18.372Z,38.33
2018-12-29T14:38:52.674Z,36.07
2018-12-29T14:41:25.237Z,33.57
2018-12-29T14:43:57.606Z,35.00
2018-12-29T14:46:28.168Z,30.87
2018-12-29T14:48:58.820Z,32.87
2018-12-29T14:51:29.322Z,33.73
2018-12-29T14:53:59.715Z,32.07
2018-12-29T14:56:30.067Z,34.60
2018-12-29T14:59:00.553Z,38.63
2018-12-29T15:01:30.918Z,26.57
2018-12-29T15:04:01.640Z,36.67
2018-12-29T15:06:33.330Z,25.70
2018-12-29T15:09:05.277Z,34.57
2018-12-29T15:11:37.960Z,31.73
2018-12-29T15:14:08.712Z,34.63
2018-12-29T15:16:39.480Z,37.23
2018-12-29T15:19:10.900Z,36.07
2018-12-29T15:21:41.545Z,22.70
2018-12-29T15:24:12.193Z,35.27
2018-12-29T15:26:42.821Z,25.63
2018-12-29T15:29:13.932Z,33.37
2018-12-29T15:31:44.595Z,34.70
2018-12-29T15:34:14.971Z,27.57
2018-12-29T15:36:48.268Z,23.13
2018-12-29T15:39:19.317Z,24.93
2018-12-29T15:41:52.401Z,24.67
2018-12-29T15:44:23.473Z,20.27
2018-12-29T15:46:56.964Z,19.97
2018-12-29T15:49:36.395Z,21.53
2018-12-29T15:52:06.843Z,16.93
2018-12-29T15:54:37.833Z,24.93
2018-12-29T15:57:09.102Z,22.20
2018-12-29T15:59:40.025Z,21.50
2018-12-29T16:02:15.113Z,18.77
2018-12-29T16:04:51.323Z,30.40
2018-12-29T16:07:21.770Z,18.93
2018-12-29T16:09:52.304Z,20.00
2018-12-29T16:12:22.829Z,23.40
2018-12-29T16:14:53.311Z,23.60
2018-12-29T16:17:25.351Z,23.97
2018-12-29T16:19:56.419Z,19.63
2018-12-29T16:22:26.923Z,28.03
2018-12-29T16:24:57.347Z,21.67
2018-12-29T16:27:27.881Z,31.83
2018-12-29T16:29:58.284Z,25.40
2018-12-29T16:32:28.836Z,31.67
2018-12-29T16:34:59.308Z,41.37
2018-12-29T16:37:29.756Z,22.83
2018-12-29T16:40:00.529Z,26.17
2018-12-29T16:42:31.492Z,37.37
2018-12-29T16:45:03.494Z,35.17
2018-12-29T16:47:35.628Z,30.87
2018-12-29T16:50:07.301Z,26.73
2018-12-29T16:52:38.467Z,27.23
2018-12-29T16:55:09.813Z,40.63
2018-12-29T16:57:40.934Z,44.07
2018-12-29T17:00:11.411Z,22.83
2018-12-29T17:02:41.943Z,33.17
2018-12-29T17:05:13.105Z,32.73
2018-12-29T17:07:43.553Z,26.83
2018-12-29T17:10:14.042Z,29.67
2018-12-29T17:12:44.988Z,26.57
2018-12-29T17:15:15.776Z,25.67
2018-12-29T17:17:47.532Z,34.83
2018-12-29T17:20:17.972Z,31.00
2018-12-29T17:22:48.412Z,34.67
2018-12-29T17:25:18.798Z,29.17
2018-12-29T17:27:49.108Z,35.73
2018-12-29T17:30:21.530Z,34.53
2018-12-29T17:32:51.905Z,33.00
2018-12-29T17:35:22.628Z,36.17
2018-12-29T17:37:53.099Z,37.10
2018-12-29T17:40:23.532Z,46.60
2018-12-29T17:42:56.729Z,43.20
2018-12-29T17:45:27.264Z,34.53
2018-12-29T17:47:57.859Z,42.93
2018-12-29T17:50:31.875Z,38.33
2018-12-29T17:53:02.441Z,49.07
2018-12-29T17:55:33.002Z,42.50
2018-12-29T17:58:04.037Z,45.97
2018-12-29T18:00:34.657Z,36.63
2018-12-29T18:03:05.144Z,31.70
2018-12-29T18:05:35.688Z,46.70
2018-12-29T18:08:06.491Z,45.83
2018-12-29T18:10:36.937Z,44.93
2018-12-29T18:13:07.334Z,34.30
2018-12-29T18:15:37.800Z,33.13
2018-12-29T18:18:08.361Z,31.03
2018-12-29T18:20:39.130Z,42.00
2018-12-29T18:23:11.292Z,29.73
2018-12-29T18:25:41.783Z,44.97
2018-12-29T18:28:12.373Z,39.80
2018-12-29T18:30:42.885Z,22.97
2018-12-29T18:33:13.829Z,24.27
2018-12-29T18:35:44.307Z,24.60
2018-12-29T18:38:14.938Z,32.87
2018-12-29T18:40:45.387Z,27.43
2018-12-29T18:43:15.883Z,29.77
2018-12-29T18:45:46.363Z,27.57
2018-12-29T18:48:16.911Z,21.87
2018-12-29T18:50:47.677Z,31.93
2018-12-29T18:53:19.435Z,29.80
2018-12-29T18:55:52.371Z,30.43
2018-12-29T18:58:22.817Z,32.70
2018-12-29T19:00:53.447Z,32.00
2018-12-29T19:03:24.283Z,35.43
2018-12-29T19:05:54.727Z,32.23
2018-12-29T19:08:25.177Z,31.07
2018-12-29T19:10:55.636Z,38.73
2018-12-29T19:13:26.277Z,38.63
2018-12-29T19:15:57.071Z,35.17
2018-12-29T19:18:27.419Z,29.13
2018-12-29T19:20:57.887Z,38.00
2018-12-29T19:23:28.444Z,29.83
2018-12-29T19:25:59.167Z,27.87
2018-12-29T19:28:29.966Z,21.90
2018-12-29T19:31:00.499Z,46.07
2018-12-29T19:33:31.269Z,30.10
2018-12-29T19:36:02.161Z,38.37
2018-12-29T19:38:32.571Z,33.00
2018-12-29T19:41:03.007Z,35.63
2018-12-29T19:43:33.674Z,28.93
2018-12-29T19:46:04.415Z,35.97
2018-12-29T19:48:34.767Z,35.63
2018-12-29T19:51:05.248Z,23.37
2018-12-29T19:53:37.102Z,33.30
2018-12-29T19:56:09.038Z,23.20
2018-12-29T19:58:39.593Z,42.80
2018-12-29T20:01:10.125Z,38.40
2018-12-29T20:03:40.551Z,33.60
2018-12-29T20:06:12.244Z,34.33
2018-12-29T20:08:42.823Z,39.73
2018-12-29T20:11:13.506Z,38.50
2018-12-29T20:13:43.963Z,33.43
2018-12-29T20:16:14.447Z,45.37
2018-12-29T20:18:45.137Z,32.10
2018-12-29T20:21:15.651Z,39.63
2018-12-29T20:23:46.081Z,36.40
2018-12-29T20:26:16.521Z,39.73
2018-12-29T20:28:46.957Z,35.00
2018-12-29T20:31:17.384Z,39.90
2018-12-29T20:33:47.787Z,32.37
2018-12-29T20:36:18.401Z,41.37
2018-12-29T20:38:48.786Z,43.37
2018-12-29T20:41:19.744Z,44.50
2018-12-29T20:43:50.081Z,44.00
2018-12-29T20:46:20.762Z,43.30
2018-12-29T20:48:51.191Z,43.07
2018-12-29T20:51:21.689Z,39.93
2018-12-29T20:53:52.401Z,57.53
2018-12-29T20:56:22.922Z,42.07
2018-12-29T20:58:53.439Z,48.97
2018-12-29T21:01:23.931Z,47.73
2018-12-29T21:03:54.238Z,40.63
2018-12-29T21:06:24.872Z,37.70
2018-12-29T21:08:55.480Z,42.70
2018-12-29T21:11:25.987Z,36.67
2018-12-29T21:13:56.371Z,41.20
2018-12-29T21:16:27.034Z,46.07
2018-12-29T21:18:57.449Z,49.30
2018-12-29T21:21:27.890Z,39.90
2018-12-29T21:24:01.408Z,43.73
2018-12-29T21:26:31.937Z,46.03
2018-12-29T21:29:02.504Z,44.07
2018-12-29T21:31:32.996Z,43.93
2018-12-29T21:34:03.587Z,33.13
2018-12-29T21:36:35.584Z,52.23
2018-12-29T21:39:07.907Z,38.53
2018-12-29T21:41:39.605Z,41.20
2018-12-29T21:44:11.094Z,36.93
2018-12-29T21:46:41.544Z,45.33
2018-12-29T21:49:12.209Z,49.83
2018-12-29T21:51:42.983Z,44.93
2018-12-29T21:54:14.902Z,42.90
2018-12-29T21:56:47.784Z,37.43
2018-12-29T21:59:20.270Z,29.37
2018-12-29T22:01:51.579Z,34.23
2018-12-29T22:04:22.266Z,46.07
2018-12-29T22:06:52.685Z,44.57
2018-12-29T22:09:23.211Z,39.93
2018-12-29T22:11:53.665Z,36.17
2018-12-29T22:14:24.142Z,35.60
2018-12-29T22:16:54.507Z,32.77
2018-12-29T22:19:24.912Z,45.10
2018-12-29T22:21:55.248Z,38.40
2018-12-29T22:24:25.612Z,40.40
2018-12-29T22:26:56.035Z,46.33
2018-12-29T22:29:26.454Z,32.73
2018-12-29T22:31:56.778Z,39.67
2018-12-29T22:34:27.129Z,34.50
2018-12-29T22:36:57.532Z,40.57
2018-12-29T22:39:28.178Z,32.13
2018-12-29T22:41:58.556Z,33.97
2018-12-29T22:44:32.218Z,33.13
2018-12-29T22:47:02.593Z,38.17
2018-12-29T22:49:33.015Z,29.57
2018-12-29T22:52:03.422Z,36.20
2018-12-29T22:54:33.875Z,34.37
2018-12-29T22:57:04.242Z,28.67
2018-12-29T22:59:34.595Z,32.37
2018-12-29T23:02:04.943Z,46.37
2018-12-29T23:04:35.466Z,29.50
2018-12-29T23:07:06.217Z,36.27
2018-12-29T23:09:36.670Z,39.47
2018-12-29T23:12:07.041Z,35.50
2018-12-29T23:14:37.411Z,41.97
2018-12-29T23:17:08.077Z,37.63
2018-12-29T23:19:38.479Z,38.73
2018-12-29T23:22:08.796Z,39.03
2018-12-29T23:24:39.297Z,34.03
2018-12-29T23:27:09.701Z,34.23
2018-12-29T23:29:40.087Z,42.63
2018-12-29T23:32:12.220Z,36.60
2018-12-29T23:34:42.527Z,41.27
2018-12-29T23:37:12.904Z,56.30
2018-12-29T23:39:43.291Z,32.03
2018-12-29T23:42:13.688Z,40.27
2018-12-29T23:44:44.131Z,37.87
2018-12-29T23:47:14.504Z,26.23
2018-12-29T23:49:44.874Z,32.60
2018-12-29T23:52:15.704Z,47.90
2018-12-29T23:54:46.093Z,39.53
2018-12-29T23:57:16.705Z,39.20
2018-12-29T23:59:47.252Z,43.47
